Accueil
METAR-TAF:

METAR-TAF

Aéroports :

Douchanbé, Tadjikistan

Aéroport international de Douchanbé

latitude: 38-33N, longitude: 068-47E, altitude: 803 m

Observation

Le bulletin a été fait il y a 42 minutes, à 23:30 UTC
Vent calme
Température 4°C
Humidité 35%
Pression 1014 hPa
Visibilité 10 km ou plus

METAR: UTDD 222330Z 00000MPS 9999 NSC 04/M10 Q1014 R09/D NOSIG RMK QFE693/0923

Heure: 05:12 (00:12 UTC)

Prévision

Le bulletin a été fait il y a 3 heures et 12 minutes, à 21:00 UTC
Prévision valable du 22 à 22 UTC au 23 à 10 UTC
Vent 4 kt de direction variable
Visibilité: 6000 m
Temporairement
du 22 à 22 UTC au 23 à 10 UTC
Visibilité: 2100 m
brume, fumée

TAF: UTDD 222100Z 2222/2310 VRB02MPS 6000 NSC TEMPO 2222/2310 2100 BR FU

Observations et prévisions météorologiques de plus de 4000 aéroports (messages METAR et TAF).

Les stations disponibles sont représentées par des disques jaunes et rouges sur la carte.

Passer la souris dessus pour voir le nom de la station.

Cliquer dessus pour voir les observations et prévisions météorologiques.

Pour changer de carte: cliquez sur les boutons verts avec une croix noire pour zoomer, sur le bouton vert avec un tiret pour effectuer un zoom arrière, ou sur les flèches vertes pour les cartes adjacentes.


METAR-TAF: